createdAt,value
2018-09-24T00:01:56.100Z,32.13
2018-09-24T00:03:58.336Z,32.35
2018-09-24T00:06:00.590Z,31.93
2018-09-24T00:08:02.880Z,30.72
2018-09-24T00:10:05.161Z,32.83
2018-09-24T00:12:07.406Z,30.15
2018-09-24T00:14:09.660Z,32.00
2018-09-24T00:16:11.946Z,29.52
2018-09-24T00:18:14.286Z,29.27
2018-09-24T00:20:16.586Z,30.55
2018-09-24T00:22:18.834Z,30.27
2018-09-24T00:24:21.126Z,29.80
2018-09-24T00:26:23.406Z,30.82
2018-09-24T00:28:25.697Z,30.60
2018-09-24T00:30:27.985Z,29.18
2018-09-24T00:32:30.272Z,28.83
2018-09-24T00:34:32.539Z,29.25
2018-09-24T00:36:34.804Z,28.38
2018-09-24T00:38:37.167Z,29.02
2018-09-24T00:40:39.439Z,29.15
2018-09-24T00:42:41.731Z,27.62
2018-09-24T00:44:43.995Z,27.60
2018-09-24T00:46:46.296Z,27.62
2018-09-24T00:48:48.544Z,26.90
2018-09-24T00:50:50.843Z,25.75
2018-09-24T00:52:53.099Z,27.27
2018-09-24T00:54:55.343Z,27.67
2018-09-24T00:56:57.617Z,25.85
2018-09-24T00:58:59.883Z,25.85
2018-09-24T01:01:02.144Z,26.07
2018-09-24T01:03:04.441Z,25.70
2018-09-24T01:05:06.715Z,25.65
2018-09-24T01:07:08.987Z,26.33
2018-09-24T01:09:11.253Z,25.57
2018-09-24T01:11:13.555Z,24.82
2018-09-24T01:13:15.823Z,24.77
2018-09-24T01:15:18.063Z,24.52
2018-09-24T01:17:20.357Z,25.05
2018-09-24T01:19:22.601Z,24.95
2018-09-24T01:21:24.879Z,24.82
2018-09-24T01:23:27.146Z,24.32
2018-09-24T01:25:29.429Z,23.98
2018-09-24T01:27:31.720Z,24.18
2018-09-24T01:29:34.022Z,23.55
2018-09-24T01:31:36.300Z,23.98
2018-09-24T01:33:38.550Z,23.07
2018-09-24T01:35:40.837Z,23.10
2018-09-24T01:37:43.118Z,22.32
2018-09-24T01:39:45.383Z,22.30
2018-09-24T01:41:47.667Z,22.10
2018-09-24T01:43:49.964Z,22.10
2018-09-24T01:45:52.222Z,21.95
2018-09-24T01:47:54.476Z,22.32
2018-09-24T01:49:56.743Z,23.10
2018-09-24T01:51:59.020Z,21.48
2018-09-24T01:54:01.254Z,21.27
2018-09-24T01:56:03.543Z,21.45
2018-09-24T01:58:05.819Z,21.52
2018-09-24T02:00:08.099Z,21.97
2018-09-24T02:02:10.368Z,20.65
2018-09-24T02:04:12.644Z,21.07
2018-09-24T02:06:14.903Z,19.95
2018-09-24T02:08:17.176Z,20.27
2018-09-24T02:10:19.461Z,19.70
2018-09-24T02:12:21.744Z,20.00
2018-09-24T02:14:23.998Z,19.95
2018-09-24T02:16:26.274Z,19.80
2018-09-24T02:18:28.542Z,19.35
2018-09-24T02:20:30.790Z,19.90
2018-09-24T02:22:33.066Z,19.45
2018-09-24T02:24:35.324Z,19.15
2018-09-24T02:26:37.588Z,19.15
2018-09-24T02:28:39.862Z,18.00
2018-09-24T02:30:42.114Z,19.35
2018-09-24T02:32:44.398Z,17.85
2018-09-24T02:34:46.646Z,18.35
2018-09-24T02:36:48.928Z,18.10
2018-09-24T02:38:51.183Z,17.85
2018-09-24T02:40:53.460Z,17.95
2018-09-24T02:42:55.750Z,17.50
2018-09-24T02:44:58.001Z,17.77
2018-09-24T02:47:00.259Z,17.07
2018-09-24T02:49:02.524Z,17.92
2018-09-24T02:51:04.782Z,16.80
2018-09-24T02:53:07.064Z,17.55
2018-09-24T02:55:09.344Z,17.75
2018-09-24T02:57:11.592Z,15.83
2018-09-24T02:59:13.850Z,17.10
2018-09-24T03:01:16.197Z,16.27
2018-09-24T03:03:18.408Z,16.57
2018-09-24T03:05:20.720Z,17.32
2018-09-24T03:07:23.022Z,16.80
2018-09-24T03:09:25.262Z,15.55
2018-09-24T03:11:27.508Z,16.02
2018-09-24T03:13:29.806Z,16.50
2018-09-24T03:15:32.102Z,16.20
2018-09-24T03:17:34.421Z,16.67
2018-09-24T03:19:36.688Z,15.80
2018-09-24T03:21:38.940Z,14.55
2018-09-24T03:23:41.228Z,15.32
2018-09-24T03:25:43.522Z,15.58
2018-09-24T03:27:45.812Z,14.70
2018-09-24T03:29:48.054Z,16.55
2018-09-24T03:31:50.306Z,16.00
2018-09-24T03:33:52.600Z,14.95
2018-09-24T03:35:54.856Z,14.50
2018-09-24T03:37:57.102Z,15.75
2018-09-24T03:39:59.394Z,14.80
2018-09-24T03:42:01.718Z,14.98
2018-09-24T03:44:03.950Z,14.70
2018-09-24T03:46:06.209Z,14.58
2018-09-24T03:48:08.477Z,14.23
2018-09-24T03:50:10.732Z,13.43
2018-09-24T03:52:13.034Z,13.30
2018-09-24T03:54:15.266Z,13.32
2018-09-24T03:56:17.563Z,13.25
2018-09-24T03:58:19.810Z,13.65
2018-09-24T04:00:22.107Z,13.83
2018-09-24T04:02:24.359Z,13.13
2018-09-24T04:04:26.619Z,12.68
2018-09-24T04:06:28.895Z,12.68
2018-09-24T04:08:31.169Z,12.28
2018-09-24T04:10:33.439Z,12.37
2018-09-24T04:12:35.734Z,12.98
2018-09-24T04:14:37.983Z,12.15
2018-09-24T04:16:40.257Z,11.93
2018-09-24T04:18:42.548Z,11.95
2018-09-24T04:20:44.795Z,13.18
2018-09-24T04:22:47.041Z,12.23
2018-09-24T04:24:49.331Z,12.18
2018-09-24T04:26:51.598Z,12.75
2018-09-24T04:28:53.847Z,12.25
2018-09-24T04:30:56.116Z,11.65
2018-09-24T04:32:58.395Z,11.33
2018-09-24T04:35:00.648Z,11.40
2018-09-24T04:37:02.950Z,11.50
2018-09-24T04:39:05.241Z,11.78
2018-09-24T04:41:07.524Z,10.25
2018-09-24T04:43:09.792Z,11.70
2018-09-24T04:45:12.059Z,10.80
2018-09-24T04:47:14.327Z,11.12
2018-09-24T04:49:16.632Z,10.70
2018-09-24T04:51:18.919Z,10.95
2018-09-24T04:53:21.170Z,11.43
2018-09-24T04:55:23.447Z,10.75
2018-09-24T04:57:25.713Z,10.85
2018-09-24T04:59:27.979Z,11.30
2018-09-24T05:01:30.268Z,10.20
2018-09-24T05:03:32.573Z,9.95
2018-09-24T05:05:34.872Z,10.95
2018-09-24T05:07:37.142Z,10.45
2018-09-24T05:09:39.417Z,9.93
2018-09-24T05:11:41.707Z,9.80
2018-09-24T05:13:43.982Z,9.73
2018-09-24T05:15:46.231Z,9.35
2018-09-24T05:17:48.528Z,9.95
2018-09-24T05:19:50.795Z,9.20
2018-09-24T05:21:53.061Z,10.32
2018-09-24T05:23:55.360Z,10.35
2018-09-24T05:25:57.629Z,9.23
2018-09-24T05:27:59.891Z,9.05
2018-09-24T05:30:02.188Z,9.13
2018-09-24T05:32:04.477Z,9.93
2018-09-24T05:34:06.802Z,9.73
2018-09-24T05:36:09.045Z,9.48
2018-09-24T05:38:11.323Z,8.80
2018-09-24T05:40:13.580Z,8.43
2018-09-24T05:42:15.827Z,8.33
2018-09-24T05:44:18.131Z,8.90
2018-09-24T05:46:20.403Z,8.75
2018-09-24T05:48:22.695Z,8.78
2018-09-24T05:50:24.983Z,8.80
2018-09-24T05:52:27.207Z,8.70
2018-09-24T05:54:29.519Z,8.30
2018-09-24T05:56:31.748Z,7.85
2018-09-24T05:58:34.006Z,8.38
2018-09-24T06:00:36.342Z,8.58
2018-09-24T06:02:38.611Z,7.78
2018-09-24T06:04:40.920Z,7.97
2018-09-24T06:06:43.135Z,7.72
2018-09-24T06:08:45.419Z,7.97
2018-09-24T06:10:47.659Z,8.03
2018-09-24T06:12:49.919Z,8.30
2018-09-24T06:14:52.206Z,7.78
2018-09-24T06:16:54.486Z,7.95
2018-09-24T06:18:56.816Z,7.60
2018-09-24T06:20:59.033Z,7.78
2018-09-24T06:23:01.443Z,7.85
2018-09-24T06:25:03.676Z,7.83
2018-09-24T06:27:05.931Z,8.03
2018-09-24T06:29:08.195Z,8.23
2018-09-24T06:31:10.455Z,7.15
2018-09-24T06:33:12.733Z,7.45
2018-09-24T06:35:15.001Z,7.22
2018-09-24T06:37:17.346Z,7.50
2018-09-24T06:39:19.584Z,6.80
2018-09-24T06:41:21.875Z,8.10
2018-09-24T06:43:24.131Z,7.15
2018-09-24T06:45:26.372Z,7.20
2018-09-24T06:47:28.660Z,6.85
2018-09-24T06:49:30.919Z,6.70
2018-09-24T06:51:33.164Z,7.10
2018-09-24T06:53:35.435Z,6.78
2018-09-24T06:55:37.723Z,6.65
2018-09-24T06:57:40.025Z,6.53
2018-09-24T06:59:42.341Z,6.90
2018-09-24T07:01:44.593Z,6.70
2018-09-24T07:03:46.833Z,7.28
2018-09-24T07:05:49.151Z,7.17
2018-09-24T07:07:51.422Z,6.80
2018-09-24T07:09:53.669Z,7.12
2018-09-24T07:11:55.946Z,6.85
2018-09-24T07:13:58.235Z,6.37
2018-09-24T07:16:00.519Z,6.30
2018-09-24T07:18:02.779Z,6.60
2018-09-24T07:20:05.027Z,6.87
2018-09-24T07:22:07.293Z,6.35
2018-09-24T07:24:09.596Z,6.70
2018-09-24T07:26:11.835Z,6.17
2018-09-24T07:28:14.096Z,6.15
2018-09-24T07:30:16.363Z,5.92
2018-09-24T07:32:18.641Z,6.03
2018-09-24T07:34:20.919Z,5.95
2018-09-24T07:36:23.166Z,6.20
2018-09-24T07:38:25.448Z,5.42
2018-09-24T07:40:27.758Z,5.90
2018-09-24T07:42:30.033Z,6.22
2018-09-24T07:44:32.308Z,5.72
2018-09-24T07:46:34.543Z,5.85
2018-09-24T07:48:36.809Z,5.75
2018-09-24T07:50:39.065Z,5.80
2018-09-24T07:52:41.303Z,5.35
2018-09-24T07:54:43.548Z,5.45
2018-09-24T07:56:45.853Z,5.50
2018-09-24T07:58:48.129Z,5.58
2018-09-24T08:00:50.407Z,5.15
2018-09-24T08:02:52.614Z,5.95
2018-09-24T08:04:54.902Z,5.55
2018-09-24T08:06:57.219Z,5.55
2018-09-24T08:08:59.629Z,5.33
2018-09-24T08:11:01.900Z,5.30
2018-09-24T08:13:04.194Z,4.92
2018-09-24T08:15:06.479Z,5.15
2018-09-24T08:17:08.725Z,5.40
2018-09-24T08:19:10.981Z,5.30
2018-09-24T08:21:13.321Z,5.17
2018-09-24T08:23:15.550Z,4.70
2018-09-24T08:25:17.820Z,4.75
2018-09-24T08:27:20.062Z,4.70
2018-09-24T08:29:22.375Z,4.78
2018-09-24T08:31:24.645Z,4.35
2018-09-24T08:33:26.893Z,4.80
2018-09-24T08:35:29.179Z,5.00
2018-09-24T08:37:31.422Z,4.58
2018-09-24T08:39:33.678Z,4.42
2018-09-24T08:41:35.938Z,4.28
2018-09-24T08:43:38.236Z,4.17
2018-09-24T08:45:40.492Z,4.45
2018-09-24T08:47:42.780Z,4.10
2018-09-24T08:49:45.126Z,4.85
2018-09-24T08:51:47.314Z,3.98
2018-09-24T08:53:49.590Z,4.67
2018-09-24T08:55:51.857Z,4.30
2018-09-24T08:57:54.118Z,4.25
2018-09-24T08:59:56.405Z,4.45
2018-09-24T09:01:58.686Z,4.45
2018-09-24T09:04:00.937Z,4.10
2018-09-24T09:06:03.250Z,4.00
2018-09-24T09:08:05.533Z,4.05
2018-09-24T09:10:07.774Z,3.98
2018-09-24T09:12:10.032Z,4.42
2018-09-24T09:14:12.304Z,3.80
2018-09-24T09:16:14.633Z,4.20
2018-09-24T09:18:16.853Z,4.17
2018-09-24T09:20:19.129Z,3.90
2018-09-24T09:22:21.400Z,3.85
2018-09-24T09:24:23.664Z,3.90
2018-09-24T09:26:25.913Z,4.12
2018-09-24T09:28:28.167Z,3.80
2018-09-24T09:30:30.450Z,3.60
2018-09-24T09:32:32.749Z,3.62
2018-09-24T09:34:35.006Z,3.52
2018-09-24T09:36:37.292Z,3.25
2018-09-24T09:38:39.531Z,3.67
2018-09-24T09:40:41.813Z,3.77
2018-09-24T09:42:44.103Z,3.58
2018-09-24T09:44:46.397Z,3.65
2018-09-24T09:46:48.722Z,3.55
2018-09-24T09:48:50.961Z,3.33
2018-09-24T09:50:53.231Z,3.55
2018-09-24T09:52:55.482Z,3.25
2018-09-24T09:54:57.757Z,3.37
2018-09-24T09:57:00.017Z,3.40
2018-09-24T09:59:02.320Z,3.37
2018-09-24T10:01:04.549Z,3.05
2018-09-24T10:03:06.824Z,2.85
2018-09-24T10:05:09.107Z,3.30
2018-09-24T10:07:11.359Z,3.45
2018-09-24T10:09:13.663Z,3.58
2018-09-24T10:11:15.904Z,3.30
2018-09-24T10:13:18.267Z,3.17
2018-09-24T10:15:20.561Z,3.08
2018-09-24T10:17:22.829Z,3.20
2018-09-24T10:19:25.119Z,3.10
2018-09-24T10:21:27.355Z,3.35
2018-09-24T10:23:30.432Z,3.30
2018-09-24T10:25:32.695Z,3.33
2018-09-24T10:27:34.984Z,3.42
2018-09-24T10:29:37.252Z,3.52
2018-09-24T10:31:39.536Z,3.30
2018-09-24T10:33:41.793Z,3.17
2018-09-24T10:35:44.029Z,3.33
2018-09-24T10:37:46.312Z,3.20
2018-09-24T10:39:48.616Z,2.45
2018-09-24T10:41:50.847Z,2.95
2018-09-24T10:43:53.121Z,2.92
2018-09-24T10:45:55.390Z,3.00
2018-09-24T10:47:57.641Z,2.75
2018-09-24T10:49:59.933Z,2.60
2018-09-24T10:52:02.183Z,3.00
2018-09-24T10:54:04.433Z,2.50
2018-09-24T10:56:06.736Z,2.75
2018-09-24T10:58:08.995Z,2.60
2018-09-24T11:00:11.290Z,2.98
2018-09-24T11:02:13.553Z,2.80
2018-09-24T11:04:15.804Z,2.47
2018-09-24T11:06:18.083Z,2.50
2018-09-24T11:08:20.331Z,2.60
2018-09-24T11:10:22.692Z,2.50
2018-09-24T11:12:24.899Z,2.60
2018-09-24T11:14:27.188Z,3.00
2018-09-24T11:16:29.957Z,2.52
2018-09-24T11:18:32.054Z,2.47
2018-09-24T11:20:34.335Z,3.02
2018-09-24T11:22:36.584Z,2.42
2018-09-24T11:24:38.848Z,2.67
2018-09-24T11:26:41.086Z,2.55
2018-09-24T11:28:43.356Z,2.52
2018-09-24T11:30:45.639Z,2.70
2018-09-24T11:32:47.884Z,3.08
2018-09-24T11:34:50.136Z,2.58
2018-09-24T11:36:52.452Z,2.62
2018-09-24T11:38:54.710Z,3.10
2018-09-24T11:40:56.984Z,2.62
2018-09-24T11:42:59.273Z,2.60
2018-09-24T11:45:01.550Z,2.87
2018-09-24T11:47:03.906Z,2.35
2018-09-24T11:49:06.102Z,2.83
2018-09-24T11:51:08.351Z,2.80
2018-09-24T11:53:10.661Z,2.40
2018-09-24T11:55:12.900Z,2.58
2018-09-24T11:57:15.175Z,2.35
2018-09-24T11:59:17.425Z,2.20
2018-09-24T12:01:19.728Z,2.42
2018-09-24T12:03:21.997Z,2.45
2018-09-24T12:05:24.294Z,2.75
2018-09-24T12:07:26.543Z,2.17
2018-09-24T12:09:28.799Z,2.30
2018-09-24T12:11:31.103Z,2.22
2018-09-24T12:13:33.343Z,2.37
2018-09-24T12:15:35.611Z,2.37
2018-09-24T12:17:37.899Z,2.35
2018-09-24T12:19:40.165Z,2.22
2018-09-24T12:21:42.426Z,2.15
2018-09-24T12:23:44.725Z,2.05
2018-09-24T12:25:46.980Z,2.17
2018-09-24T12:27:49.268Z,2.10
2018-09-24T12:29:51.544Z,1.90
2018-09-24T12:31:53.850Z,1.72
2018-09-24T12:33:56.100Z,2.00
2018-09-24T12:35:58.393Z,1.72
2018-09-24T12:38:00.691Z,2.10
2018-09-24T12:40:02.984Z,1.62
2018-09-24T12:42:05.237Z,1.87
2018-09-24T12:44:07.484Z,2.20
2018-09-24T12:46:09.782Z,1.92
2018-09-24T12:48:12.105Z,2.02
2018-09-24T12:50:21.256Z,2.00
2018-09-24T12:52:23.552Z,1.62
2018-09-24T12:54:25.836Z,1.72
2018-09-24T12:56:28.131Z,1.80
2018-09-24T12:58:30.417Z,1.80
2018-09-24T13:00:32.672Z,1.82
2018-09-24T13:02:34.935Z,1.80
2018-09-24T13:04:37.218Z,1.77
2018-09-24T13:06:39.472Z,1.98
2018-09-24T13:08:41.756Z,2.08
2018-09-24T13:10:43.998Z,2.55
2018-09-24T13:12:46.284Z,1.80
2018-09-24T13:14:48.571Z,1.72
2018-09-24T13:16:50.874Z,1.82
2018-09-24T13:18:53.125Z,1.80
2018-09-24T13:20:55.385Z,2.25
2018-09-24T13:22:57.657Z,1.45
2018-09-24T13:24:59.941Z,1.45
2018-09-24T13:27:02.215Z,1.70
2018-09-24T13:29:04.453Z,1.57
2018-09-24T13:31:06.753Z,1.72
2018-09-24T13:33:09.041Z,1.95
2018-09-24T13:35:11.339Z,1.55
2018-09-24T13:37:13.647Z,1.62
2018-09-24T13:39:15.927Z,1.35
2018-09-24T13:41:18.225Z,1.72
2018-09-24T13:43:20.529Z,1.95
2018-09-24T13:45:22.761Z,1.72
2018-09-24T13:47:25.018Z,1.40
2018-09-24T13:49:27.374Z,1.32
2018-09-24T13:51:29.594Z,1.80
2018-09-24T13:53:31.884Z,1.60
2018-09-24T13:55:34.132Z,1.47
2018-09-24T13:57:36.413Z,1.65
2018-09-24T13:59:38.664Z,1.70
2018-09-24T14:01:40.937Z,1.42
2018-09-24T14:03:43.217Z,1.52
2018-09-24T14:05:45.460Z,2.17
2018-09-24T14:07:47.756Z,1.60
2018-09-24T14:09:50.036Z,1.60
2018-09-24T14:11:52.299Z,1.32
2018-09-24T14:13:54.588Z,1.70
2018-09-24T14:15:56.851Z,1.20
2018-09-24T14:17:59.153Z,1.30
2018-09-24T14:20:01.448Z,1.50
2018-09-24T14:22:03.711Z,1.37
2018-09-24T14:24:06.014Z,1.37
2018-09-24T14:26:08.364Z,1.57
2018-09-24T14:28:10.608Z,1.60
2018-09-24T14:30:12.913Z,1.40
2018-09-24T14:32:15.169Z,1.60
2018-09-24T14:34:17.425Z,1.17
2018-09-24T14:36:19.677Z,1.30
2018-09-24T14:38:21.941Z,1.27
2018-09-24T14:40:24.235Z,1.30
2018-09-24T14:42:26.476Z,1.25
2018-09-24T14:44:28.745Z,1.50
2018-09-24T14:46:31.037Z,1.45
2018-09-24T14:48:33.279Z,1.40
2018-09-24T14:50:35.583Z,1.37
2018-09-24T14:52:37.840Z,1.17
2018-09-24T14:54:40.091Z,1.40
2018-09-24T14:56:42.381Z,1.25
2018-09-24T14:58:44.619Z,1.40
2018-09-24T15:00:46.937Z,1.35
2018-09-24T15:02:49.219Z,1.20
2018-09-24T15:04:51.521Z,1.72
2018-09-24T15:06:53.773Z,1.32
2018-09-24T15:08:56.083Z,1.40
2018-09-24T15:10:58.381Z,1.00
2018-09-24T15:13:00.637Z,1.40
2018-09-24T15:15:02.903Z,1.10
2018-09-24T15:17:05.203Z,1.25
2018-09-24T15:19:07.426Z,1.35
2018-09-24T15:21:09.717Z,1.20
2018-09-24T15:23:11.968Z,1.30
2018-09-24T15:25:14.261Z,1.15
2018-09-24T15:27:16.547Z,1.20
2018-09-24T15:29:18.833Z,1.32
2018-09-24T15:31:21.123Z,1.12
2018-09-24T15:33:23.461Z,1.30
2018-09-24T15:35:25.703Z,1.00
2018-09-24T15:37:28.013Z,1.25
2018-09-24T15:39:30.276Z,1.07
2018-09-24T15:41:32.515Z,1.32
2018-09-24T15:43:34.803Z,1.10
2018-09-24T15:45:37.095Z,1.30
2018-09-24T15:47:39.379Z,1.30
2018-09-24T15:49:41.624Z,1.15
2018-09-24T15:51:43.931Z,1.32
2018-09-24T15:53:46.255Z,1.25
2018-09-24T15:55:48.861Z,1.20
2018-09-24T15:57:51.144Z,1.40
2018-09-24T15:59:53.379Z,1.22
2018-09-24T16:01:55.626Z,1.20
2018-09-24T16:03:57.922Z,1.20
2018-09-24T16:06:00.169Z,1.00
2018-09-24T16:08:02.433Z,1.02
2018-09-24T16:10:04.703Z,1.10
2018-09-24T16:12:06.962Z,1.20
2018-09-24T16:14:09.255Z,0.90
2018-09-24T16:16:11.543Z,1.05
2018-09-24T16:18:13.798Z,1.20
2018-09-24T16:20:16.091Z,1.02
2018-09-24T16:22:18.380Z,1.00
2018-09-24T16:24:20.638Z,1.05
2018-09-24T16:26:22.873Z,1.10
2018-09-24T16:28:25.167Z,0.90
2018-09-24T16:30:27.538Z,1.10
2018-09-24T16:32:29.761Z,0.80
2018-09-24T16:34:32.052Z,0.90
2018-09-24T16:36:34.320Z,1.00
2018-09-24T16:38:36.620Z,0.93
2018-09-24T16:40:39.310Z,1.05
2018-09-24T16:42:41.596Z,1.20
2018-09-24T16:44:43.850Z,0.93
2018-09-24T16:46:46.126Z,0.82
2018-09-24T16:48:48.382Z,1.00
2018-09-24T16:50:50.643Z,0.85
2018-09-24T16:52:52.931Z,0.98
2018-09-24T16:54:55.200Z,1.10
2018-09-24T16:56:57.439Z,1.22
2018-09-24T16:58:59.727Z,0.80
2018-09-24T17:01:01.984Z,1.10
2018-09-24T17:03:04.272Z,1.22
2018-09-24T17:05:06.528Z,1.10
2018-09-24T17:07:08.824Z,0.85
2018-09-24T17:09:11.081Z,1.07
2018-09-24T17:11:13.354Z,0.80
2018-09-24T17:13:15.654Z,0.90
2018-09-24T17:15:17.937Z,1.10
2018-09-24T17:17:20.230Z,0.90
2018-09-24T17:19:22.478Z,1.17
2018-09-24T17:21:24.806Z,1.07
2018-09-24T17:23:27.086Z,0.70
2018-09-24T17:25:29.376Z,1.12
2018-09-24T17:27:31.697Z,0.82
2018-09-24T17:29:33.982Z,1.20
2018-09-24T17:31:36.284Z,1.02
2018-09-24T17:33:38.540Z,1.00
2018-09-24T17:35:40.914Z,0.93
2018-09-24T17:37:43.082Z,1.00
2018-09-24T17:39:45.352Z,0.80
2018-09-24T17:41:47.657Z,1.07
2018-09-24T17:43:49.922Z,0.90
2018-09-24T17:45:52.208Z,0.90
2018-09-24T17:47:54.446Z,0.93
2018-09-24T17:49:56.738Z,1.02
2018-09-24T17:51:58.998Z,0.65
2018-09-24T17:54:01.243Z,0.70
2018-09-24T17:56:03.532Z,1.05
2018-09-24T17:58:05.837Z,0.80
2018-09-24T18:00:08.259Z,0.90
2018-09-24T18:02:10.481Z,0.82
2018-09-24T18:04:12.740Z,0.85
2018-09-24T18:06:15.028Z,1.12
2018-09-24T18:08:17.277Z,0.90
2018-09-24T18:10:19.570Z,0.80
2018-09-24T18:12:21.830Z,0.80
2018-09-24T18:14:24.075Z,1.20
2018-09-24T18:16:26.341Z,0.90
2018-09-24T18:18:28.604Z,0.80
2018-09-24T18:20:30.871Z,0.82
2018-09-24T18:22:33.145Z,0.90
2018-09-24T18:24:35.406Z,0.80
2018-09-24T18:26:37.645Z,0.70
2018-09-24T18:28:39.934Z,0.80
2018-09-24T18:30:42.192Z,0.80
2018-09-24T18:32:44.445Z,0.65
2018-09-24T18:34:46.739Z,0.82
2018-09-24T18:36:49.006Z,1.10
2018-09-24T18:38:51.321Z,0.75
2018-09-24T18:40:53.624Z,0.90
2018-09-24T18:42:55.867Z,0.78
2018-09-24T18:44:58.159Z,0.75
2018-09-24T18:47:00.441Z,0.98
2018-09-24T18:49:02.691Z,0.78
2018-09-24T18:51:04.971Z,0.90
2018-09-24T18:53:07.269Z,0.75
2018-09-24T18:55:09.541Z,0.82
2018-09-24T18:57:11.813Z,0.68
2018-09-24T18:59:14.093Z,0.80
2018-09-24T19:01:16.353Z,0.70
2018-09-24T19:03:18.617Z,0.90
2018-09-24T19:05:20.924Z,0.90
2018-09-24T19:07:23.241Z,0.70
2018-09-24T19:09:25.484Z,0.95
2018-09-24T19:11:28.109Z,0.70
2018-09-24T19:13:30.045Z,0.70
2018-09-24T19:15:32.349Z,0.70
2018-09-24T19:17:34.605Z,0.72
2018-09-24T19:19:36.881Z,0.80
2018-09-24T19:21:39.192Z,0.65
2018-09-24T19:23:41.881Z,0.72
2018-09-24T19:25:44.173Z,0.78
2018-09-24T19:27:46.429Z,0.90
2018-09-24T19:29:48.669Z,0.90
2018-09-24T19:31:50.958Z,0.85
2018-09-24T19:33:53.259Z,0.85
2018-09-24T19:35:55.554Z,0.70
2018-09-24T19:37:57.787Z,0.95
2018-09-24T19:40:00.071Z,0.70
2018-09-24T19:42:02.346Z,0.78
2018-09-24T19:44:04.615Z,0.90
2018-09-24T19:46:06.929Z,0.70
2018-09-24T19:48:09.220Z,0.88
2018-09-24T19:50:11.502Z,0.80
2018-09-24T19:52:13.815Z,0.68
2018-09-24T19:54:16.079Z,1.07
2018-09-24T19:56:18.344Z,0.95
2018-09-24T19:58:20.631Z,0.80
2018-09-24T20:00:22.929Z,0.70
2018-09-24T20:02:25.241Z,0.80
2018-09-24T20:04:27.506Z,0.80
2018-09-24T20:06:29.829Z,0.95
2018-09-24T20:08:32.073Z,0.77
2018-09-24T20:10:34.308Z,0.72
2018-09-24T20:12:36.621Z,0.80
2018-09-24T20:14:38.871Z,0.70
2018-09-24T20:16:41.225Z,0.78
2018-09-24T20:18:43.440Z,0.70
2018-09-24T20:20:45.722Z,0.83
2018-09-24T20:22:47.995Z,0.90
2018-09-24T20:24:50.297Z,0.67
2018-09-24T20:26:52.538Z,0.95
2018-09-24T20:28:54.810Z,0.90
2018-09-24T20:30:57.086Z,0.80
2018-09-24T20:32:59.353Z,0.85
2018-09-24T20:35:01.603Z,0.70
2018-09-24T20:37:03.896Z,0.88
2018-09-24T20:39:06.144Z,0.80
2018-09-24T20:41:08.400Z,0.90
2018-09-24T20:43:10.691Z,0.90
2018-09-24T20:45:12.971Z,0.70
2018-09-24T20:47:15.197Z,0.75
2018-09-24T20:49:17.481Z,0.70
2018-09-24T20:51:19.778Z,0.90
2018-09-24T20:53:22.052Z,0.98
2018-09-24T20:55:24.302Z,0.50
2018-09-24T20:57:26.572Z,0.90
2018-09-24T20:59:28.858Z,0.98
2018-09-24T21:01:31.122Z,0.60
2018-09-24T21:03:33.376Z,0.80
2018-09-24T21:05:35.654Z,0.90
2018-09-24T21:07:37.922Z,0.57
2018-09-24T21:09:40.174Z,0.80
2018-09-24T21:11:42.450Z,0.70
2018-09-24T21:13:44.706Z,0.70
2018-09-24T21:15:46.967Z,0.70
2018-09-24T21:17:49.256Z,0.70
2018-09-24T21:19:51.542Z,0.70
2018-09-24T21:21:53.806Z,0.60
2018-09-24T21:23:56.051Z,0.83
2018-09-24T21:25:58.344Z,0.70
2018-09-24T21:28:00.601Z,0.70
2018-09-24T21:30:02.870Z,0.60
2018-09-24T21:32:05.152Z,0.70
2018-09-24T21:34:07.419Z,0.80
2018-09-24T21:36:09.732Z,0.90
2018-09-24T21:38:12.041Z,0.70
2018-09-24T21:40:14.467Z,0.70
2018-09-24T21:42:16.752Z,0.70
2018-09-24T21:44:19.037Z,1.20
2018-09-24T21:46:21.460Z,0.70
2018-09-24T21:48:23.571Z,0.80
2018-09-24T21:50:25.833Z,0.70
2018-09-24T21:52:28.117Z,0.70
2018-09-24T21:54:30.377Z,1.00
2018-09-24T21:56:32.669Z,0.80
2018-09-24T21:58:34.942Z,0.80
2018-09-24T22:00:37.223Z,0.80
2018-09-24T22:02:39.534Z,0.70
2018-09-24T22:04:41.818Z,0.80
2018-09-24T22:06:44.116Z,0.70
2018-09-24T22:08:46.587Z,0.70
